Latest Weather Observations for Latrobe Valley

IDV60801

Issued at 11:02 pm EST Tuesday 21 April 2015 (issued every 30 minutes, with the page automatically refreshed every 10 minutes)

About weather observations | Map of weather stations | Latest weather observations for VIC | Other Formats
Station Details ID: 085280 Name: LATROBE VALLEY AIRPORT Lat: -38.21 Lon: 146.47 Height: 55.7 m
Data from the previous 72 hours. | See also: Recent months at Latrobe Valley
Date/Time
EST
Temp
°C
App
Temp
°C
Dew
Point
Rel
Hum
%
Delta-T
°C
Wind Press
QNH
hPa
Press
MSL
hPa
Rain
since 9 am
mm
Dir
 
Spd
km/h
Gust
km/h
Spd
kts
Gust
kts
21/11:00pm 7.1 6.4 7.0 99 0.0 CALM 0 0 0 0 1029.2 1029.2 0.0
21/10:30pm 7.4 6.8 7.3 99 0.0 CALM 0 0 0 0 1029.7 1029.7 0.0
21/10:00pm 7.1 6.4 7.0 99 0.0 CALM 0 0 0 0 1030.1 1030.1 0.0
21/09:30pm 7.7 7.0 6.8 94 0.4 CALM 0 0 0 0 1030.1 1030.1 0.0
21/09:00pm 7.7 6.4 6.2 90 0.7 WNW 2 9 1 5 1030.2 1030.2 0.0
21/08:30pm 8.2 7.4 6.7 90 0.7 CALM 0 0 0 0 1030.1 1030.1 0.0
21/08:00pm 9.0 8.2 6.4 84 1.2 CALM 0 0 0 0 1030.3 1030.3 0.0
21/07:30pm 10.5 9.7 6.6 77 1.8 CALM 0 7 0 4 1030.5 1030.5 0.0
21/07:00pm 11.7 9.3 6.8 72 2.3 E 9 13 5 7 1030.3 1030.3 0.0
21/06:30pm 12.2 10.1 6.7 69 2.6 ESE 7 11 4 6 1030.2 1030.2 0.0
21/06:00pm 12.9 10.4 6.5 65 3.0 ESE 9 11 5 6 1030.0 1030.0 0.0
21/05:30pm 13.9 11.4 6.5 61 3.6 ESE 9 13 5 7 1029.9 1029.9 0.0
21/05:00pm 14.9 11.9 6.2 56 4.2 ESE 11 17 6 9 1029.8 1029.8 0.0
21/04:30pm 15.7 12.4 6.4 54 4.5 ESE 13 22 7 12 1029.8 1029.8 0.0
21/04:00pm 16.4 12.5 5.4 48 5.2 E 15 20 8 11 1029.8 1029.8 0.0
21/03:30pm 17.2 14.0 7.0 51 5.1 E 13 20 7 11 1029.9 1029.9 0.0
21/03:00pm 17.0 13.3 6.2 49 5.3 E 15 26 8 14 1030.0 1030.0 0.0
21/02:30pm 17.5 13.5 6.7 49 5.4 E 17 24 9 13 1029.9 1029.9 0.0
21/02:00pm 17.4 13.9 7.2 51 5.1 E 15 22 8 12 1029.9 1029.9 0.0
21/01:30pm 16.1 13.2 6.5 53 4.7 ESE 11 17 6 9 1030.2 1030.2 0.0
21/01:00pm 16.6 13.9 7.5 55 4.5 ENE 11 19 6 10 1030.6 1030.6 0.0
21/12:30pm 16.7 13.7 7.6 55 4.6 ENE 13 20 7 11 1031.2 1031.2 0.0
21/12:00pm 15.5 12.6 8.0 61 3.7 NE 13 20 7 11 1031.6 1031.6 0.0
21/11:30am 15.4 12.9 8.2 62 3.6 E 11 20 6 11 1032.1 1032.0 0.0
21/11:00am 15.2 12.8 8.7 65 3.3 ENE 11 19 6 10 1032.5 1032.4 0.0
21/10:30am 14.1 12.7 8.9 71 2.6 ESE 6 11 3 6 1032.8 1032.7 0.0
21/10:00am 11.1 10.9 9.0 87 1.0 CALM 0 4 0 2 1033.2 1033.1 0.0
21/09:30am 8.6 7.5 8.6 100 0.0 WNW 4 7 2 4 1033.4 1033.3 0.0
21/09:14am 7.7 6.0 7.7 100 0.0 W 6 9 3 5 1033.6 1033.5 0.0
21/09:09am 7.4 5.7 7.4 100 0.0 W 6 9 3 5 1033.6 1033.5 0.0
21/09:00am 6.9 5.0 6.9 100 0.0 W 6 7 3 4 1033.6 1033.5 0.0
21/08:30am 4.8 1.9 4.8 100 0.0 WSW 9 9 5 5 1034.0 1033.9 0.0
21/08:00am 3.7 1.0 3.7 100 0.0 SW 7 9 4 5 1034.1 1034.0 0.0
21/07:30am 0.6 -1.7 0.6 100 0.0 WSW 2 9 1 5 1034.1 1034.0 0.0
21/07:16am 0.8 -1.1 0.8 100 0.0 CALM 0 0 0 0 1034.1 1034.0 0.0
21/07:11am 0.9 -0.9 0.9 100 0.0 CALM 0 0 0 0 1034.0 1033.9 0.0
21/07:00am 0.7 -1.2 0.7 100 0.0 CALM 0 6 0 3 1033.9 1033.8 0.0
21/06:53am 0.6 -1.3 0.6 100 0.0 CALM 0 6 0 3 1033.9 1033.8 0.0
21/06:30am 0.7 -1.9 0.7 100 0.0 SW 4 6 2 3 1033.7 1033.6 0.0
21/06:21am 0.3 -1.6 0.3 100 0.0 CALM 0 0 0 0 1033.8 1033.7 0.0
21/06:07am 0.5 -2.2 0.5 100 0.0 SSW 4 6 2 3 1033.7 1033.6 0.0
21/06:00am 0.8 -2.2 0.8 100 0.0 SW 6 7 3 4 1033.7 1033.6 0.0
21/05:30am 0.9 -2.1 0.9 100 0.0 SW 6 11 3 6 1033.6 1033.5 0.0
21/05:08am 0.0 -2.0 -0.1 99 0.0 CALM 0 0 0 0 1033.4 1033.3 0.0
21/05:00am 0.3 -1.7 0.2 99 0.0 CALM 0 0 0 0 1033.5 1033.4 0.0
21/04:57am 0.6 -1.3 0.6 100 0.0 CALM 0 0 0 0 1033.4 1033.3 0.0
21/04:30am 1.4 -0.7 1.4 100 0.0 S 2 7 1 4 1033.2 1033.1 0.0
21/04:00am 2.2 -0.8 2.2 100 0.0 SSW 7 11 4 6 1033.0 1032.9 0.0
21/03:30am 2.1 0.4 2.1 100 0.0 CALM 0 0 0 0 1033.3 1033.2 0.0
21/03:13am 1.5 -0.3 1.5 100 0.0 CALM 0 0 0 0 1033.5 1033.4 0.0
21/03:00am 1.4 -1.1 1.4 100 0.0 SW 4 6 2 3 1033.6 1033.5 0.0
21/02:52am 1.4 -1.7 1.4 100 0.0 SW 7 11 4 6 1033.7 1033.6 0.0
21/02:30am 1.4 -1.5 1.4 100 0.0 SW 6 7 3 4 1034.0 1033.9 0.0
21/02:07am 1.6 -0.2 1.5 99 0.0 CALM 0 0 0 0 1034.1 1034.0 0.0
21/02:00am 1.8 0.1 1.7 99 0.0 CALM 0 0 0 0 1034.2 1034.1 0.0
21/01:30am 2.6 0.7 2.6 100 0.0 SSW 2 6 1 3 1034.6 1034.6 0.0
21/01:00am 2.8 1.3 2.8 100 0.0 CALM 0 0 0 0 1034.8 1034.8 0.0
21/12:30am 1.9 -0.6 1.8 99 0.0 NE 4 9 2 5 1034.6 1034.6 0.0
21/12:00am 3.4 2.0 3.3 99 0.0 CALM 0 0 0 0 1034.7 1034.7 0.0
 
Date/Time
EST
Temp
°C
App
Temp
°C
Dew
Point
Rel
Hum
%
Delta-T
°C
Wind Press
QNH
hPa
Press
MSL
hPa
Rain
since 9 am
mm
Dir
 
Spd
km/h
Gust
km/h
Spd
kts
Gust
kts
20/11:30pm 2.5 0.9 2.4 99 0.0 CALM 0 0 0 0 1034.9 1034.9 0.0
20/11:00pm 4.0 2.7 3.9 99 0.0 CALM 0 0 0 0 1035.1 1035.1 0.0
20/10:30pm 4.3 3.0 4.0 98 0.1 CALM 0 0 0 0 1035.2 1035.2 0.0
20/10:00pm 5.5 4.4 5.1 97 0.2 CALM 0 0 0 0 1035.5 1035.5 0.0
20/09:30pm 5.7 4.6 5.0 95 0.3 CALM 0 0 0 0 1035.5 1035.5 0.0
20/09:00pm 6.6 5.5 5.1 90 0.7 CALM 0 0 0 0 1035.5 1035.5 0.0
20/08:30pm 6.8 5.6 4.8 87 0.9 CALM 0 0 0 0 1035.6 1035.6 0.0
20/08:00pm 7.1 4.9 5.3 88 0.8 N 6 9 3 5 1035.4 1035.4 0.0
20/07:30pm 7.0 5.8 4.7 85 1.0 CALM 0 0 0 0 1035.3 1035.3 0.0
20/07:00pm 8.5 7.3 4.5 76 1.7 CALM 0 0 0 0 1035.2 1035.2 0.0
20/06:30pm 10.8 8.9 5.1 68 2.6 SSE 4 7 2 4 1035.0 1035.0 0.0
20/06:00pm 11.4 9.2 5.3 66 2.8 SSE 6 7 3 4 1034.9 1034.9 0.0
20/05:30pm 12.3 9.7 4.0 57 3.7 SSE 7 13 4 7 1034.6 1034.6 0.0
20/05:00pm 13.7 9.7 2.9 48 4.8 SE 13 20 7 11 1034.3 1034.2 0.0
20/04:30pm 14.6 10.2 2.8 45 5.3 SSE 15 20 8 11 1034.3 1034.2 0.0
20/04:00pm 14.9 11.3 2.8 44 5.4 SE 11 17 6 9 1034.2 1034.1 0.0
20/03:30pm 15.3 11.3 2.8 43 5.6 SSE 13 20 7 11 1034.2 1034.1 0.0
20/03:00pm 15.7 11.6 2.5 41 5.9 SE 13 20 7 11 1034.3 1034.2 0.0
20/02:30pm 16.0 12.4 3.1 42 5.9 SSE 11 20 6 11 1034.2 1034.1 0.0
20/02:00pm 16.0 11.7 3.4 43 5.7 SSE 15 22 8 12 1034.4 1034.3 0.0
20/01:30pm 15.7 11.6 2.5 41 5.9 SE 13 22 7 12 1034.7 1034.7 0.0
20/01:00pm 14.9 11.8 3.4 46 5.2 SE 9 13 5 7 1034.9 1034.9 0.0
20/12:30pm 15.2 12.0 3.0 44 5.5 SE 9 17 5 9 1035.2 1035.2 0.0
20/12:00pm 15.5 12.3 3.3 44 5.5 S 9 19 5 10 1035.7 1035.7 0.0
20/11:30am 15.2 12.0 3.0 44 5.5 SSE 9 15 5 8 1036.2 1036.2 0.0
20/11:00am 14.9 11.6 4.6 50 4.8 S 11 19 6 10 1036.5 1036.5 0.0
20/10:30am 14.3 12.7 8.0 66 3.1 SSE 6 9 3 5 1036.7 1036.7 0.0
20/10:00am 12.5 10.5 8.8 78 1.8 WSW 9 13 5 7 1036.8 1036.8 0.0
20/09:30am 10.5 8.4 8.4 87 1.0 WSW 9 11 5 6 1037.0 1037.0 0.0
20/09:00am 9.2 7.1 8.1 93 0.5 WSW 9 13 5 7 1037.1 1037.1 0.2
20/08:30am 7.7 5.4 7.6 99 0.0 W 9 11 5 6 1037.0 1037.0 0.2
20/08:00am 5.1 3.2 5.1 100 0.0 WSW 4 6 2 3 1036.9 1036.9 0.2
20/07:30am 3.8 1.3 3.8 100 0.0 SW 6 7 3 4 1036.5 1036.5 0.2
20/07:00am 2.7 0.8 2.7 100 0.0 SW 2 7 1 4 1036.3 1036.3 0.2
20/06:30am 3.0 0.4 3.0 100 0.0 WSW 6 7 3 4 1036.0 1036.0 0.2
20/06:00am 2.5 0.5 2.5 100 0.0 SW 2 6 1 3 1035.8 1035.8 0.2
20/05:30am 3.6 1.1 3.6 100 0.0 SSW 6 7 3 4 1035.4 1035.4 0.2
20/05:00am 3.4 0.8 3.4 100 0.0 SSW 6 7 3 4 1035.1 1035.1 0.2
20/04:30am 3.7 1.5 3.6 99 0.0 SW 4 7 2 4 1034.8 1034.8 0.2
20/04:00am 4.1 2.8 4.0 99 0.0 CALM 0 0 0 0 1034.7 1034.7 0.2
20/03:30am 3.3 1.8 3.2 99 0.0 CALM 0 0 0 0 1034.4 1034.3 0.2
20/03:00am 3.4 0.8 3.3 99 0.0 NE 6 7 3 4 1034.4 1034.3 0.2
20/02:30am 4.8 1.5 4.5 98 0.1 SW 11 15 6 8 1034.4 1034.3 0.2
20/02:00am 4.4 1.1 4.3 99 0.0 WSW 11 13 6 7 1034.4 1034.3 0.2
20/01:30am 5.6 2.9 5.5 99 0.0 W 9 11 5 6 1034.4 1034.3 0.2
20/01:00am 6.3 3.7 6.0 98 0.1 WNW 9 17 5 9 1034.4 1034.3 0.2
20/12:30am 5.8 2.9 4.9 94 0.4 SSW 9 15 5 8 1035.0 1035.0 0.2
20/12:00am 5.2 2.2 4.3 94 0.4 WSW 9 11 5 6 1034.6 1034.6 0.2
 
Date/Time
EST
Temp
°C
App
Temp
°C
Dew
Point
Rel
Hum
%
Delta-T
°C
Wind Press
QNH
hPa
Press
MSL
hPa
Rain
since 9 am
mm
Dir
 
Spd
km/h
Gust
km/h
Spd
kts
Gust
kts
19/11:30pm 5.6 2.7 4.7 94 0.4 WNW 9 11 5 6 1034.5 1034.5 0.2
19/11:00pm 5.5 2.8 5.4 99 0.0 W 9 11 5 6 1034.5 1034.5 0.2
19/10:30pm 4.6 1.3 4.5 99 0.0 WNW 11 13 6 7 1034.4 1034.3 0.2
19/10:00pm 6.2 3.7 5.0 92 0.5 SSE 7 17 4 9 1034.7 1034.7 0.2
19/09:30pm 5.8 3.4 4.3 90 0.6 SW 6 9 3 5 1034.0 1033.9 0.2
19/09:00pm 6.5 4.0 4.7 88 0.8 SW 7 9 4 5 1033.7 1033.6 0.2
19/08:30pm 6.7 3.8 4.7 87 0.9 WSW 9 15 5 8 1033.3 1033.2 0.2
19/08:00pm 6.3 3.4 4.8 90 0.6 W 9 9 5 5 1033.0 1032.9 0.2
19/07:30pm 6.7 3.5 4.9 88 0.8 SW 11 13 6 7 1032.7 1032.6 0.2
19/07:00pm 7.3 5.0 4.8 84 1.1 W 6 9 3 5 1032.1 1032.0 0.2
19/06:30pm 7.6 4.2 4.2 79 1.5 W 11 13 6 7 1031.3 1031.3 0.2
19/06:00pm 9.0 4.9 4.4 73 2.0 WSW 15 19 8 10 1031.0 1031.0 0.2
19/05:30pm 10.6 6.1 4.1 64 2.9 SW 17 22 9 12 1030.3 1030.3 0.2
19/05:00pm 11.8 6.9 4.3 60 3.4 SW 19 26 10 14 1029.8 1029.8 0.2
19/04:30pm 12.8 6.4 3.2 52 4.3 SSW 26 35 14 19 1029.3 1029.3 0.2
19/04:00pm 13.0 7.2 4.4 56 3.9 SSW 24 33 13 18 1028.9 1028.9 0.2
19/03:30pm 13.6 7.0 4.2 53 4.3 SSW 28 41 15 22 1028.4 1028.4 0.2
19/03:00pm 14.3 8.0 3.5 48 4.9 SSW 26 43 14 23 1028.1 1028.1 0.2
19/02:30pm 14.7 8.5 4.1 49 4.9 SSW 26 35 14 19 1027.7 1027.7 0.2
19/02:00pm 14.1 7.9 4.1 51 4.6 SW 26 39 14 21 1027.3 1027.3 0.2
19/01:30pm 14.3 8.0 5.7 56 4.1 SW 28 35 15 19 1026.9 1026.9 0.2
19/01:00pm 14.9 9.1 6.2 56 4.2 SW 26 39 14 21 1026.5 1026.5 0.2
19/12:30pm 14.5 8.4 5.0 53 4.5 SSW 26 39 14 21 1026.4 1026.4 0.2
19/12:00pm 13.4 7.7 6.5 63 3.3 SW 26 33 14 18 1026.4 1026.4 0.2
19/11:30am 13.5 8.5 8.1 70 2.7 SW 24 32 13 17 1026.4 1026.4 0.2
19/11:00am 11.7 8.4 9.4 86 1.2 W 17 22 9 12 1026.3 1026.3 0.2
19/10:30am 11.1 7.6 8.8 86 1.1 W 17 24 9 13 1026.0 1026.0 0.2
19/10:00am 9.5 5.7 9.2 98 0.1 W 19 24 10 13 1025.7 1025.7 0.2
19/09:30am 9.7 4.1 8.6 93 0.5 WSW 28 39 15 21 1025.4 1025.4 0.0
19/09:00am 10.1 4.7 8.2 88 0.9 WSW 26 33 14 18 1025.0 1025.0 3.4
19/08:30am 9.9 4.9 8.0 88 0.9 WSW 24 33 13 18 1024.2 1024.2 3.4
19/08:00am 9.4 6.0 9.1 98 0.1 W 17 20 9 11 1023.6 1023.6 3.4
19/07:30am 8.8 4.7 8.7 99 0.0 W 20 26 11 14 1022.7 1022.7 3.4
19/07:00am 9.2 5.1 8.6 96 0.3 W 20 28 11 15 1022.1 1022.1 3.2
19/06:30am 8.6 4.6 8.2 97 0.2 W 19 24 10 13 1021.2 1021.2 3.2
19/06:00am 9.1 5.7 9.0 99 0.0 WNW 17 20 9 11 1020.7 1020.7 3.2
19/05:30am 8.9 5.4 8.8 99 0.0 WNW 17 20 9 11 1019.9 1019.9 3.2
19/05:00am 9.2 6.2 9.1 99 0.0 WNW 15 22 8 12 1019.4 1019.4 3.0
19/04:30am 9.7 6.4 9.4 98 0.1 WNW 17 22 9 12 1018.8 1018.7 3.0
19/04:00am 10.1 6.0 10.1 100 0.0 WNW 22 32 12 17 1018.4 1018.3 3.0
19/03:30am 9.7 6.1 9.7 100 0.0 WNW 19 24 10 13 1018.2 1018.1 3.0
19/03:00am 10.1 6.4 10.1 100 0.0 WNW 20 28 11 15 1017.8 1017.7 3.0
19/02:30am 10.0 5.5 10.0 100 0.0 WNW 24 33 13 18 1017.4 1017.3 3.0
19/02:00am 9.9 5.4 9.9 100 0.0 WNW 24 32 13 17 1017.4 1017.3 3.0
19/01:30am 10.2 6.1 10.2 100 0.0 W 22 30 12 16 1017.3 1017.2 2.8
19/01:00am 10.2 6.5 10.2 100 0.0 WNW 20 28 11 15 1017.3 1017.2 2.6
19/12:30am 10.1 6.4 10.1 100 0.0 WNW 20 32 11 17 1017.0 1016.9 2.4
19/12:00am 10.2 6.1 10.2 100 0.0 WNW 22 28 12 15 1017.0 1016.9 2.2
 
Date/Time
EST
Temp
°C
App
Temp
°C
Dew
Point
Rel
Hum
%
Delta-T
°C
Wind Press
QNH
hPa
Press
MSL
hPa
Rain
since 9 am
mm
Dir
 
Spd
km/h
Gust
km/h
Spd
kts
Gust
kts
18/11:47pm 10.2 6.5 10.2 100 0.0 WNW 20 24 11 13 1017.0 1016.9 1.8
18/11:30pm 10.2 6.5 10.2 100 0.0 WNW 20 32 11 17 1017.0 1016.9 1.8
18/11:19pm 10.4 6.8 10.4 100 0.0 WNW 20 30 11 16 1017.0 1016.9 1.4

Other Formats:

Comma delimited format used in spreadsheet applications
http://www.bom.gov.au/fwo/IDV60801/IDV60801.94891.axf

JavaScript Object Notation format (JSON) in row-major order
http://www.bom.gov.au/fwo/IDV60801/IDV60801.94891.json